メインページ
METAR-TAF:

METAR-TAF

空港 :

Tadoule Lake, マニトバ州, カナダ

緯度: 58-42-22N, 経度: 98-30-44W, 海抜: 281m

現時点の気象観測

当レポートは49分前の11:00(UTC)に作成
西/北西の風 7kt
気温 -31°C
湿度 75%
気圧 1014 hPa
視程: 14.5km
晴天

METAR: CYBQ 141100Z AUTO 29007KT 9SM CLR M31/M34 A2995 RMK SLP190

時間: 05:49 (11:49 UTC)


TAF: 見つかりません

4,000以上の空港の気象観測と天気予報(METAR報とTAF報)

利用可能な観測所は地図上に黄色い丸と赤い丸で示す。

丸の上にカーソルを重ねると観測所名を参照できる。

次にクリックすると気象観測と天気予報を参照できる。

マップの切り替え:黒色「×」印の緑ボタンをクリックして拡大、「-」印の緑ボタンをクリックして縮小、緑色の三角印をクリックして隣りの地図に切り替え


METAR-TAF: